Linville Falls, North Carolina
Current Conditions -  °F | °C
As of 7:35 AM on Sunday 23 Nov 2014 (Local Time) from KMRN Reporting Station
Moderate Rain Moderate Rain  
Wind Chill: 43°   Ceiling: 2200
Heat Index: 43°   Visibility: 10mi
Dew Point: 32°   Wind: 0mph
Humidity: 65%   Direction: NA
Pressure: 30.27"   Gusts: NA
Location:  35.96°N, 81.94°W
Report Text: KMRN 231235Z AUTO 00000KT 10SM RA OVC022 06/00 A3027 RMK AO2 T00601001
Loading
Personal Weather Stations






























Interactive Weather Map New forecast layout! Learn more

10-Day Weather Forecast

Advertisements
Track Severe Weather on mobile